Ana Sayfa
METAR-TAF:

METAR-TAF

Havaalanları :

Pattani, Tayland

Enlem: 06-47-08N, Boylam: 101-09-13E, yükseklik: 2 m

METAR: eksik

Saat: 02:39 (19:39 UTC)

Tahmin

Rapor saat 17:00 UTC de 2 saat ve 39 dakika önce yapıldı.
Ayın 10'si saat 18 UTC'den ayın 11'si saat 18 UTC'ye kadar geçerli Tahmin
Rüzgar güney/güneydoğudan 5 kt
Görüş mesafesi 10 km veya daha fazla
2000 ft yükseklikte az bulutlu
Dönüşüyor
ayın 11'si saat 01 UTC'den ayın 11'si saat 03 UTC'ye kadar
Rüzgar doğu/kuzeydoğudan 10 kt
Geçici
ayın 11'si saat 03 UTC'den ayın 11'si saat 09 UTC'ye kadar
Görüş mesafesi: 5000 m
1500 ft yükseklikte parçalı bulutlu
10000 ft yükseklikte parçalı çok bulutlu
yağmur
Dönüşüyor
ayın 11'si saat 13 UTC'den ayın 11'si saat 15 UTC'ye kadar
Rüzgar güney/güneydoğudan 5 kt

TAF: VTSK 101700Z 1018/1118 16005KT 9999 FEW020 BECMG 1101/1103 07010KT TEMPO 1103/1109 5000 RA SCT015 BKN100 BECMG 1113/1115 16005KT

4.000'den fazla havaalanı için hava durumu gözlemleri ve tahminleri (METAR ve TAF raporları).

Kullanılabilir istasyonlar harita üzerinde sarı ve kırmızı noktalarla gösterilir.

İstasyonun adını görmek için fareyi noktanın üzerinde gezdirin.

Sonrasında hava gözlem ve tahminlerini görmek için tıklayın.

Haritayı değiştirmek için: yaklaştırmak için siyah artı işaretli yeşil düğmeye ve uzaklaştırmak için de eksi işaretli düğmeye hızla tıklayın; bitişik haritalar için yeşil okları kullanın.


METAR-TAF: